Time;durP1;ratioP1;P1;durP2;ratioP2;P2;SDS_P1;SDS_P2;PMS_P1;PMS_P2;Temp;Humidity;BMP_temperature;BMP_pressure;BME280_temperature;BME280_humidity;BME280_pressure;Samples;Min_cycle;Max_cycle;Signal;HPM_P1;HPM_P2
2021/01/30 00:01:27;;;;;;;1.00;0.60;;;9.30;73.30;;;;;;4933791;29;20443;-84
2021/01/30 00:03:53;;;;;;;1.17;0.40;;;9.20;73.40;;;;;;4934279;29;20415;-84
2021/01/30 00:06:19;;;;;;;0.98;0.60;;;;;;;;;;4934519;29;20816;-83
2021/01/30 00:08:46;;;;;;;2.50;1.37;;;;;;;;;;4934096;29;20772;-84
2021/01/30 00:11:12;;;;;;;2.50;1.33;;;;;;;;;;4934339;29;20422;-84
2021/01/30 00:13:38;;;;;;;1.52;1.00;;;9.10;74.30;;;;;;4934016;29;20407;-84
2021/01/30 00:16:05;;;;;;;1.48;1.00;;;8.00;77.50;;;;;;4935325;29;20451;-84
2021/01/30 00:18:31;;;;;;;2.10;1.10;;;7.70;78.50;;;;;;4934016;29;20419;-84
2021/01/30 00:20:57;;;;;;;1.63;0.80;;;7.60;79.00;;;;;;4934193;29;20422;-80
2021/01/30 00:23:23;;;;;;;1.65;0.52;;;7.60;79.70;;;;;;4934379;29;20412;-83
2021/01/30 00:25:49;;;;;;;1.88;1.10;;;7.60;78.90;;;;;;4934035;29;20412;-84
2021/01/30 00:28:15;;;;;;;2.22;1.20;;;7.90;78.30;;;;;;4929367;29;20407;-83
2021/01/30 00:30:41;;;;;;;2.60;1.20;;;7.70;77.80;;;;;;4934748;29;20422;-83
2021/01/30 00:33:08;;;;;;;2.30;1.20;;;7.50;78.20;;;;;;4933070;29;20499;-83
2021/01/30 00:35:35;;;;;;;2.70;1.20;;;7.50;79.20;;;;;;4933485;29;20482;-83
2021/01/30 00:38:02;;;;;;;1.95;1.15;;;7.50;78.90;;;;;;4933898;29;20763;-83
2021/01/30 00:40:28;;;;;;;2.00;1.30;;;7.30;79.30;;;;;;4930137;29;20485;-79
2021/01/30 00:42:55;;;;;;;1.73;1.20;;;7.20;80.20;;;;;;4934111;29;20411;-84
2021/01/30 00:45:23;;;;;;;1.30;1.10;;;7.10;80.90;;;;;;4933791;29;20991;-83
2021/01/30 00:47:49;;;;;;;3.97;1.52;;;7.20;80.70;;;;;;4933867;29;20451;-84
2021/01/30 00:50:17;;;;;;;1.30;1.10;;;7.20;81.10;;;;;;4934856;29;20407;-83
2021/01/30 00:52:44;;;;;;;1.80;1.20;;;;;;;;;;4939004;29;20471;-83
2021/01/30 00:55:11;;;;;;;1.70;1.20;;;;;;;;;;4934402;29;20412;-84
2021/01/30 00:57:37;;;;;;;1.75;1.10;;;;;;;;;;4935076;29;20403;-84
2021/01/30 01:00:06;;;;;;;1.52;1.17;;;;;;;;;;4933777;29;20511;-84
2021/01/30 01:02:32;;;;;;;2.20;1.27;;;;;;;;;;4934809;29;20478;-83
2021/01/30 01:04:58;;;;;;;1.88;0.95;;;;;;;;;;4934851;29;20950;-83
2021/01/30 01:07:25;;;;;;;1.70;1.20;;;;;;;;;;4933903;29;20416;-83
2021/01/30 01:09:51;;;;;;;2.65;1.48;;;7.20;81.40;;;;;;4934001;29;20439;-84
2021/01/30 01:12:17;;;;;;;3.47;1.48;;;6.40;87.50;;;;;;4929506;29;20426;-84
2021/01/30 01:14:42;;;;;;;2.95;1.48;;;6.40;87.00;;;;;;4937639;29;20475;-84
2021/01/30 01:17:08;;;;;;;4.90;1.77;;;6.50;87.30;;;;;;4937048;29;20430;-84
2021/01/30 01:19:34;;;;;;;1.95;0.98;;;6.50;87.80;;;;;;4937176;29;20455;-83
2021/01/30 01:22:00;;;;;;;2.50;1.05;;;6.60;86.60;;;;;;4936996;29;20418;-84
2021/01/30 01:24:27;;;;;;;3.58;1.30;;;6.90;85.50;;;;;;4937241;29;20403;-84
2021/01/30 01:26:53;;;;;;;2.35;1.27;;;;;;;;;;4936860;29;20407;-83
2021/01/30 01:29:20;;;;;;;2.03;1.23;;;;;;;;;;4937238;29;20475;-83
2021/01/30 01:31:49;;;;;;;1.58;1.13;;;;;;;;;;4938210;29;20435;-84
2021/01/30 01:34:15;;;;;;;3.17;1.35;;;;;;;;;;4933552;29;20412;-84
2021/01/30 01:36:42;;;;;;;1.90;1.10;;;;;;;;;;4936924;29;20823;-84
2021/01/30 01:39:08;;;;;;;1.88;0.95;;;;;;;;;;4936726;29;20761;-83
2021/01/30 01:41:35;;;;;;;1.75;1.20;;;;;;;;;;4936976;29;20495;-83
2021/01/30 01:44:01;;;;;;;2.15;1.10;;;;;;;;;;4936664;29;20447;-82
2021/01/30 01:46:29;;;;;;;1.85;1.00;;;;;;;;;;4930557;29;20480;-83
2021/01/30 01:49:00;;;;;;;2.38;1.15;;;;;;;;;;4936965;29;20411;-83
2021/01/30 01:51:34;;;;;;;1.77;1.15;;;6.60;86.00;;;;;;4937037;29;20896;-84
2021/01/30 01:54:05;;;;;;;2.45;1.20;;;5.40;92.30;;;;;;4936469;29;20414;-83
2021/01/30 01:56:34;;;;;;;1.50;1.00;;;5.40;92.10;;;;;;4936491;29;20407;-83
2021/01/30 01:59:05;;;;;;;1.90;1.30;;;5.40;91.90;;;;;;4942337;29;20427;-83
2021/01/30 02:04:09;;;;;;;3.50;2.20;;;5.20;92.30;;;;;;4904988;29;20445;-75
2021/01/30 02:06:40;;;;;;;3.83;2.22;;;5.10;93.00;;;;;;4914097;29;20429;-75
2021/01/30 02:09:08;;;;;;;5.22;3.38;;;5.00;93.10;;;;;;4912280;29;20942;-75
2021/01/30 02:11:34;;;;;;;6.45;4.00;;;5.00;93.50;;;;;;4913738;29;20405;-76
2021/01/30 02:14:02;;;;;;;5.68;4.00;;;4.80;94.70;;;;;;4931404;29;20401;-75
2021/01/30 02:16:39;;;;;;;5.47;3.77;;;4.80;94.90;;;;;;4915723;29;20461;-75
2021/01/30 02:19:40;;;;;;;5.75;3.80;;;4.80;94.70;;;;;;4912379;29;20779;-75
2021/01/30 02:22:53;;;;;;;4.93;3.50;;;4.90;94.40;;;;;;4912749;29;20436;-74
2021/01/30 02:26:07;;;;;;;4.57;3.40;;;4.90;94.30;;;;;;4928654;29;20760;-75
2021/01/30 02:28:40;;;;;;;5.18;4.10;;;5.00;94.30;;;;;;4926087;29;20425;-75
2021/01/30 02:31:42;;;;;;;5.03;3.83;;;4.90;94.60;;;;;;4913244;29;20449;-74
2021/01/30 02:34:33;;;;;;;7.47;3.60;;;4.90;94.50;;;;;;4915796;29;20422;-75
2021/01/30 02:37:02;;;;;;;5.75;3.67;;;4.90;94.50;;;;;;4915764;29;20398;-74
2021/01/30 02:39:33;;;;;;;4.82;3.95;;;4.80;94.40;;;;;;4915257;29;20432;-75
2021/01/30 02:42:06;;;;;;;6.47;4.53;;;4.70;94.40;;;;;;4931773;29;20414;-74
2021/01/30 02:44:35;;;;;;;6.13;4.55;;;;;;;;;;4916938;29;20924;-74
2021/01/30 02:47:01;;;;;;;5.57;4.90;;;;;;;;;;4915252;29;20920;-74
2021/01/30 02:49:30;;;;;;;6.97;5.07;;;;;;;;;;4930831;29;20413;-74
2021/01/30 02:52:05;;;;;;;6.32;4.70;;;;;;;;;;4914635;29;20428;-75
2021/01/30 02:54:36;;;;;;;5.45;4.43;;;;;;;;;;4916717;29;20417;-75
2021/01/30 02:57:05;;;;;;;5.38;4.00;;;;;;;;;;4914743;29;20448;-74
2021/01/30 02:59:33;;;;;;;7.22;5.35;;;4.50;95.10;;;;;;4911500;29;20425;-74
2021/01/30 03:01:59;;;;;;;6.97;5.15;;;3.80;96.70;;;;;;4914980;29;20421;-74
2021/01/30 03:04:26;;;;;;;8.48;5.90;;;;;;;;;;4912350;29;20397;-75
2021/01/30 03:07:10;;;;;;;5.97;5.18;;;;;;;;;;4915198;29;20484;-75
2021/01/30 03:09:40;;;;;;;6.10;4.60;;;;;;;;;;4915230;29;20493;-74
2021/01/30 03:12:09;;;;;;;6.38;4.75;;;;;;;;;;4914829;29;20413;-74
2021/01/30 03:14:39;;;;;;;7.07;5.78;;;;;;;;;;4915650;29;20406;-74
2021/01/30 03:17:06;;;;;;;6.07;5.13;;;;;;;;;;4915942;29;20873;-74
2021/01/30 03:19:33;;;;;;;6.10;5.03;;;;;;;;;;4914242;29;20424;-74
2021/01/30 03:22:00;;;;;;;6.68;4.82;;;;;;;;;;4913367;29;20413;-75
2021/01/30 03:24:27;;;;;;;7.18;5.68;;;;;;;;;;4915012;29;20466;-74
2021/01/30 03:26:54;;;;;;;6.60;4.80;;;;;;;;;;4908884;29;20975;-74
2021/01/30 03:29:20;;;;;;;5.15;4.53;;;;;;;;;;4909729;29;20464;-74
2021/01/30 03:31:47;;;;;;;5.55;4.72;;;;;;;;;;4913956;29;20405;-74
2021/01/30 03:34:14;;;;;;;7.05;5.63;;;;;;;;;;4929856;28;20440;-75
2021/01/30 03:36:40;;;;;;;6.07;4.50;;;;;;;;;;4927990;29;20416;-74
2021/01/30 03:39:11;;;;;;;7.95;5.65;;;;;;;;;;4913962;29;20437;-74
2021/01/30 03:41:38;;;;;;;7.40;6.50;;;;;;;;;;4913120;29;20831;-74
2021/01/30 03:44:05;;;;;;;6.72;5.50;;;;;;;;;;4914525;29;20908;-74
2021/01/30 03:46:31;;;;;;;6.32;5.05;;;;;;;;;;4914579;29;20421;-74
2021/01/30 03:48:57;;;;;;;6.78;5.72;;;;;;;;;;4914381;29;20405;-74
2021/01/30 03:51:23;;;;;;;8.25;5.63;;;;;;;;;;4914620;29;20468;-74
2021/01/30 03:53:49;;;;;;;7.85;5.50;;;;;;;;;;4912869;29;20414;-74
2021/01/30 03:56:16;;;;;;;7.00;5.53;;;;;;;;;;4914636;29;20893;-75
2021/01/30 03:58:45;;;;;;;6.85;5.60;;;;;;;;;;4914502;29;20436;-74
2021/01/30 04:01:12;;;;;;;7.65;5.70;;;;;;;;;;4914615;29;20780;-74
2021/01/30 04:03:38;;;;;;;7.63;5.50;;;;;;;;;;4911551;29;20516;-74
2021/01/30 04:06:04;;;;;;;8.85;5.68;;;;;;;;;;4906819;29;20414;-75
2021/01/30 04:08:31;;;;;;;6.85;5.78;;;;;;;;;;4914379;29;20413;-74
2021/01/30 04:10:57;;;;;;;7.07;5.72;;;;;;;;;;4914449;29;20413;-74
2021/01/30 04:13:23;;;;;;;5.97;5.35;;;;;;;;;;4912366;29;20409;-74
2021/01/30 04:15:49;;;;;;;6.28;5.43;;;;;;;;;;4914998;29;20441;-74
2021/01/30 04:18:16;;;;;;;6.80;5.68;;;3.60;98.40;;;;;;4912212;29;20410;-74
2021/01/30 04:20:42;;;;;;;8.65;6.00;;;;;;;;;;4911902;29;20443;-74
2021/01/30 04:23:08;;;;;;;6.53;5.43;;;;;;;;;;4909178;29;20927;-74
2021/01/30 04:25:34;;;;;;;9.10;6.25;;;;;;;;;;4924744;29;20423;-74
2021/01/30 04:28:00;;;;;;;6.95;5.60;;;;;;;;;;4923774;29;20412;-75
2021/01/30 04:30:28;;;;;;;7.75;5.78;;;;;;;;;;4913508;29;20397;-74
2021/01/30 04:32:54;;;;;;;9.30;7.55;;;;;;;;;;4914094;29;20413;-74
2021/01/30 04:35:23;;;;;;;8.05;6.47;;;;;;;;;;4913354;29;20449;-74
2021/01/30 04:37:49;;;;;;;7.40;6.20;;;;;;;;;;4922741;29;20461;-74
2021/01/30 04:40:18;;;;;;;9.23;7.57;;;;;;;;;;4910522;29;20484;-74
2021/01/30 04:42:50;;;;;;;8.03;6.40;;;;;;;;;;4925094;29;20511;-75
2021/01/30 04:45:25;;;;;;;6.93;5.85;;;;;;;;;;4913826;29;20420;-74
2021/01/30 04:47:56;;;;;;;8.32;6.35;;;;;;;;;;4916863;29;20511;-74
2021/01/30 04:50:29;;;;;;;7.50;5.90;;;;;;;;;;4917987;29;20494;-74
2021/01/30 04:52:58;;;;;;;7.05;5.97;;;;;;;;;;4914633;29;20524;-74
2021/01/30 04:55:32;;;;;;;8.18;5.80;;;;;;;;;;4918006;29;20503;-75
2021/01/30 04:58:03;;;;;;;6.53;5.40;;;;;;;;;;4932384;29;20444;-75
2021/01/30 05:00:33;;;;;;;6.70;5.20;;;;;;;;;;4914853;29;20901;-74
2021/01/30 05:03:06;;;;;;;6.50;5.30;;;;;;;;;;4917349;29;20915;-74
2021/01/30 05:05:34;;;;;;;5.88;4.88;;;2.50;99.90;;;;;;4917219;29;20421;-74
2021/01/30 05:08:03;;;;;;;7.75;5.78;;;;;;;;;;4918590;29;20457;-74
2021/01/30 05:10:31;;;;;;;8.55;6.70;;;;;;;;;;4916768;29;20456;-74
2021/01/30 05:12:59;;;;;;;10.85;8.27;;;;;;;;;;4912627;29;20413;-74
2021/01/30 05:15:28;;;;;;;9.73;7.63;;;;;;;;;;4918703;29;20893;-74
2021/01/30 05:17:56;;;;;;;10.20;8.00;;;;;;;;;;4911341;29;20463;-74
2021/01/30 05:20:22;;;;;;;9.23;7.47;;;;;;;;;;4917162;29;20421;-74
2021/01/30 05:22:49;;;;;;;9.30;7.13;;;;;;;;;;4917196;29;20413;-74
2021/01/30 05:25:18;;;;;;;8.25;6.10;;;;;;;;;;4933058;29;20421;-75
2021/01/30 05:28:05;;;;;;;9.25;6.28;;;;;;;;;;4917036;29;20770;-74
2021/01/30 05:30:34;;;;;;;7.80;5.63;;;;;;;;;;4912563;29;20425;-74
2021/01/30 05:33:11;;;;;;;6.60;5.32;;;;;;;;;;4918194;29;20409;-74
2021/01/30 05:35:45;;;;;;;5.68;4.50;;;;;;;;;;4918422;29;20409;-74
2021/01/30 05:38:18;;;;;;;6.13;4.70;;;;;;;;;;4917551;29;20761;-74
2021/01/30 05:40:48;;;;;;;6.15;5.15;;;;;;;;;;4918271;29;20469;-74
2021/01/30 05:43:21;;;;;;;6.20;5.40;;;1.30;99.90;;;;;;4916903;29;20511;-74
2021/01/30 05:45:51;;;;;;;7.45;6.03;;;0.90;99.90;;;;;;4916959;29;20417;-74
2021/01/30 05:48:19;;;;;;;6.82;5.65;;;;;;;;;;4916785;29;20421;-74
2021/01/30 05:50:48;;;;;;;6.88;5.45;;;;;;;;;;4918007;29;20465;-74
2021/01/30 05:53:18;;;;;;;7.72;5.00;;;;;;;;;;4916718;29;20889;-74
2021/01/30 05:55:44;;;;;;;7.28;5.45;;;;;;;;;;4917291;29;20972;-74
2021/01/30 05:58:12;;;;;;;7.85;5.75;;;;;;;;;;4916634;29;20889;-73
2021/01/30 06:00:38;;;;;;;6.53;5.40;;;0.80;99.90;;;;;;4918061;29;20758;-75
2021/01/30 06:03:10;;;;;;;7.75;6.05;;;0.60;99.90;;;;;;4916437;29;20453;-74
2021/01/30 06:05:38;;;;;;;6.93;5.35;;;;;;;;;;4916791;29;20784;-74
2021/01/30 06:08:16;;;;;;;8.00;6.22;;;;;;;;;;4917884;29;20413;-74
2021/01/30 06:10:42;;;;;;;7.45;6.47;;;;;;;;;;4931968;29;20417;-74
2021/01/30 06:13:10;;;;;;;10.13;6.50;;;;;;;;;;4916337;29;20467;-74
2021/01/30 06:15:38;;;;;;;8.15;6.00;;;;;;;;;;4932221;29;20443;-74
2021/01/30 06:18:17;;;;;;;11.52;9.25;;;;;;;;;;4917636;29;20901;-74
2021/01/30 06:20:56;;;;;;;12.77;9.48;;;;;;;;;;4913774;29;20534;-75
2021/01/30 06:23:23;;;;;;;13.07;9.38;;;;;;;;;;4914192;29;20405;-74
2021/01/30 06:25:49;;;;;;;13.82;10.63;;;;;;;;;;4917333;29;20476;-74
2021/01/30 06:28:21;;;;;;;13.20;10.68;;;;;;;;;;4927512;29;20773;-74
2021/01/30 06:30:48;;;;;;;12.73;10.65;;;;;;;;;;4916077;29;20409;-74
2021/01/30 06:33:19;;;;;;;11.23;9.25;;;;;;;;;;4915582;29;20409;-74
2021/01/30 06:35:45;;;;;;;9.88;8.20;;;;;;;;;;4915937;29;20425;-74
2021/01/30 06:38:13;;;;;;;19.80;13.75;;;;;;;;;;4914275;29;20413;-74
2021/01/30 06:40:50;;;;;;;19.67;14.18;;;;;;;;;;4915874;29;20428;-74
2021/01/30 06:43:21;;;;;;;21.80;16.38;;;;;;;;;;4915937;29;20409;-74
2021/01/30 06:45:48;;;;;;;13.27;11.10;;;;;;;;;;4915985;29;20413;-74
2021/01/30 06:48:24;;;;;;;12.73;10.25;;;;;;;;;;4911847;29;20505;-74
2021/01/30 06:50:50;;;;;;;12.85;10.13;;;;;;;;;;4931641;29;20452;-75
2021/01/30 06:53:19;;;;;;;8.57;7.32;;;;;;;;;;4911474;29;20409;-74
2021/01/30 06:55:45;;;;;;;7.67;6.60;;;;;;;;;;4915902;29;20440;-74
2021/01/30 06:58:19;;;;;;;8.13;6.40;;;;;;;;;;4915475;29;20515;-75
2021/01/30 07:00:45;;;;;;;8.45;7.35;;;;;;;;;;4915726;29;20425;-74
2021/01/30 07:03:15;;;;;;;8.00;6.80;;;;;;;;;;4915047;29;20437;-74
2021/01/30 07:05:52;;;;;;;10.35;8.43;;;;;;;;;;4911475;29;20411;-75
2021/01/30 07:08:26;;;;;;;9.15;7.25;;;;;;;;;;4926744;29;20739;-75
2021/01/30 07:10:58;;;;;;;9.73;7.78;;;;;;;;;;4930886;29;20889;-74
2021/01/30 07:13:30;;;;;;;8.98;7.15;;;;;;;;;;4915240;29;20977;-74
2021/01/30 07:16:00;;;;;;;10.70;7.63;;;;;;;;;;4916474;29;20977;-74
2021/01/30 07:18:29;;;;;;;12.68;9.13;;;;;;;;;;4916480;29;20826;-74
2021/01/30 07:21:07;;;;;;;21.00;13.25;;;;;;;;;;4916376;29;20413;-75
2021/01/30 07:23:35;;;;;;;26.25;16.77;;;;;;;;;;4915110;29;20412;-74
2021/01/30 07:26:06;;;;;;;20.85;13.60;;;;;;;;;;4914446;29;20413;-74
2021/01/30 07:28:36;;;;;;;20.88;14.70;;;;;;;;;;4931059;29;20431;-74
2021/01/30 07:31:07;;;;;;;38.33;22.92;;;;;;;;;;4915219;29;20834;-74
2021/01/30 07:33:36;;;;;;;22.92;16.73;;;;;;;;;;4930959;29;20420;-74
2021/01/30 07:36:04;;;;;;;22.37;16.20;;;;;;;;;;4914714;29;20449;-74
2021/01/30 07:38:33;;;;;;;15.20;11.57;;;;;;;;;;4916235;29;20420;-75
2021/01/30 07:41:00;;;;;;;15.90;11.65;;;;;;;;;;4915956;29;20409;-74
2021/01/30 07:43:27;;;;;;;14.98;10.70;;;;;;;;;;4930771;29;20932;-74
2021/01/30 07:45:57;;;;;;;14.00;11.07;;;;;;;;;;4914798;29;20468;-74
2021/01/30 07:48:25;;;;;;;13.30;9.55;;;;;;;;;;4914473;29;20424;-74
2021/01/30 07:50:53;;;;;;;12.55;9.65;;;;;;;;;;4930520;29;20405;-74
2021/01/30 07:53:21;;;;;;;14.02;10.85;;;;;;;;;;4914383;29;20477;-74
2021/01/30 07:55:55;;;;;;;12.30;9.23;;;;;;;;;;4914867;29;20517;-74
2021/01/30 07:58:26;;;;;;;18.08;13.30;;;;;;;;;;4915712;29;20422;-75
2021/01/30 08:01:01;;;;;;;17.75;13.13;;;;;;;;;;4924360;29;20924;-75
2021/01/30 08:03:36;;;;;;;16.90;13.15;;;;;;;;;;4910835;29;20513;-75
2021/01/30 08:06:09;;;;;;;20.30;16.85;;;;;;;;;;4924195;29;20465;-75
2021/01/30 08:08:40;;;;;;;20.05;15.10;;;;;;;;;;4912527;29;20424;-75
2021/01/30 08:11:18;;;;;;;20.42;15.88;;;0.60;99.90;;;;;;4915365;29;20427;-75
2021/01/30 08:13:52;;;;;;;19.45;14.38;;;2.60;99.90;;;;;;4900089;29;20425;-75
2021/01/30 08:16:34;;;;;;;18.40;14.05;;;2.80;99.90;;;;;;4919198;29;20771;-75
2021/01/30 08:19:02;;;;;;;23.92;17.52;;;;;;;;;;4906941;29;20427;-76
2021/01/30 08:21:32;;;;;;;28.15;21.13;;;;;;;;;;4903631;29;20403;-75
2021/01/30 08:24:17;;;;;;;32.83;23.25;;;;;;;;;;4907958;29;20441;-75
2021/01/30 08:26:48;;;;;;;38.45;22.33;;;;;;;;;;4922617;29;20445;-75
2021/01/30 08:29:16;;;;;;;28.90;20.95;;;;;;;;;;4915313;29;20421;-77
2021/01/30 08:31:46;;;;;;;23.08;15.57;;;3.10;99.90;;;;;;4930300;29;20454;-76
2021/01/30 08:34:27;;;;;;;16.95;13.50;;;;;;;;;;4915533;29;20401;-75
2021/01/30 08:36:55;;;;;;;13.68;10.90;;;;;;;;;;4930087;29;20456;-75
2021/01/30 08:39:25;;;;;;;13.90;10.77;;;4.50;99.90;;;;;;4910687;29;20435;-75
2021/01/30 08:41:55;;;;;;;13.45;10.48;;;5.10;99.90;;;;;;4914247;29;20448;-75
2021/01/30 08:44:39;;;;;;;22.60;15.55;;;5.20;99.90;;;;;;4920823;29;20465;-75
2021/01/30 08:47:16;;;;;;;21.88;14.82;;;5.20;99.90;;;;;;4904632;29;20402;-75
2021/01/30 08:50:01;;;;;;;18.73;14.90;;;5.20;99.90;;;;;;4915356;29;20735;-75
2021/01/30 08:52:56;;;;;;;28.98;21.45;;;5.40;99.90;;;;;;4912962;29;20405;-75
2021/01/30 08:55:49;;;;;;;28.23;21.70;;;5.40;99.90;;;;;;4911628;29;20450;-74
2021/01/30 08:59:00;;;;;;;26.48;19.88;;;5.60;99.90;;;;;;4907207;29;20485;-75
2021/01/30 09:01:47;;;;;;;22.45;17.85;;;5.80;99.90;;;;;;4905882;29;20419;-75
2021/01/30 09:04:58;;;;;;;18.30;14.48;;;6.30;99.10;;;;;;4926240;29;20483;-75
2021/01/30 09:07:36;;;;;;;15.77;12.85;;;6.70;98.70;;;;;;4913215;29;20405;-76
2021/01/30 09:10:28;;;;;;;13.90;11.27;;;;;;;;;;4907559;29;20411;-76
2021/01/30 09:12:56;;;;;;;12.40;9.90;;;7.10;98.40;;;;;;4907079;29;20545;-76
2021/01/30 09:15:53;;;;;;;9.07;7.78;;;7.80;98.20;;;;;;4913732;29;20402;-76
2021/01/30 09:18:24;;;;;;;9.45;8.20;;;;;;;;;;4903414;29;20418;-75
2021/01/30 09:20:57;;;;;;;9.18;7.85;;;8.30;99.90;;;;;;4918589;29;21023;-76
2021/01/30 09:23:29;;;;;;;8.82;7.78;;;;;;;;;;4903084;29;20420;-75
2021/01/30 09:25:58;;;;;;;9.38;7.40;;;;;;;;;;4905282;29;20409;-75
2021/01/30 09:28:26;;;;;;;8.88;7.43;;;;;;;;;;4929440;29;20420;-76
2021/01/30 09:30:55;;;;;;;10.23;8.50;;;8.30;99.90;;;;;;4910193;29;20418;-75
2021/01/30 09:33:25;;;;;;;10.80;8.75;;;9.00;93.80;;;;;;4912015;29;20424;-76
2021/01/30 09:36:05;;;;;;;9.90;8.30;;;9.00;93.10;;;;;;4910687;29;20508;-75
2021/01/30 09:38:34;;;;;;;10.00;7.93;;;9.10;94.10;;;;;;4908190;29;20537;-74
2021/01/30 09:41:21;;;;;;;8.40;7.50;;;;;;;;;;4906570;29;20833;-74
2021/01/30 09:43:48;;;;;;;13.37;8.00;;;9.70;91.60;;;;;;4901563;29;20424;-75
2021/01/30 09:46:19;;;;;;;8.80;6.50;;;10.00;90.80;;;;;;4908406;29;20393;-75
2021/01/30 09:48:46;;;;;;;8.90;6.55;;;10.20;90.80;;;;;;4908599;29;20409;-75
2021/01/30 09:51:13;;;;;;;7.53;6.65;;;10.50;89.60;;;;;;4906829;29;20403;-75
2021/01/30 09:53:43;;;;;;;6.78;4.45;;;;;;;;;;4908284;29;20469;-75
2021/01/30 09:56:11;;;;;;;6.25;4.97;;;;;;;;;;4929449;29;20405;-75
2021/01/30 09:58:39;;;;;;;4.80;4.25;;;;;;;;;;4920422;29;20417;-74
2021/01/30 10:01:07;;;;;;;5.18;3.65;;;;;;;;;;4921778;29;20743;-75
2021/01/30 10:03:35;;;;;;;4.10;3.30;;;;;;;;;;4907323;29;20913;-75
2021/01/30 10:06:08;;;;;;;5.28;3.95;;;;;;;;;;4907817;29;20402;-75
2021/01/30 10:08:36;;;;;;;5.73;4.53;;;;;;;;;;4908025;29;20401;-74
2021/01/30 10:11:03;;;;;;;6.13;3.75;;;;;;;;;;4908268;29;20421;-75
2021/01/30 10:13:30;;;;;;;8.25;5.63;;;;;;;;;;4921781;29;20420;-75
2021/01/30 10:15:57;;;;;;;6.90;4.90;;;;;;;;;;4921027;29;20936;-76
2021/01/30 10:18:24;;;;;;;8.63;6.53;;;;;;;;;;4919899;29;20417;-75
2021/01/30 10:20:51;;;;;;;22.65;16.63;;;;;;;;;;4928101;29;20528;-75
2021/01/30 10:23:27;;;;;;;15.93;12.77;;;;;;;;;;4919913;29;20516;-76
2021/01/30 10:26:03;;;;;;;12.55;10.60;;;;;;;;;;4923230;29;20471;-76
2021/01/30 10:28:39;;;;;;;12.25;10.55;;;;;;;;;;4907718;29;20442;-75
2021/01/30 10:31:05;;;;;;;11.83;9.70;;;;;;;;;;4920239;29;20403;-75
2021/01/30 10:33:32;;;;;;;9.48;8.45;;;;;;;;;;4919549;29;20414;-76
2021/01/30 10:35:58;;;;;;;9.07;7.78;;;;;;;;;;4920863;29;20427;-75
2021/01/30 10:38:27;;;;;;;10.98;8.07;;;12.40;79.60;;;;;;4920322;29;20878;-75
2021/01/30 10:40:57;;;;;;;10.65;8.30;;;12.00;74.50;;;;;;4906621;29;20429;-76
2021/01/30 10:43:28;;;;;;;12.80;8.93;;;11.80;73.20;;;;;;4905148;29;20406;-75
2021/01/30 10:45:55;;;;;;;29.83;17.15;;;11.90;74.40;;;;;;4905336;29;20442;-75
2021/01/30 10:48:23;;;;;;;12.05;8.32;;;11.80;71.20;;;;;;4906235;29;20427;-75
2021/01/30 10:50:51;;;;;;;11.13;7.90;;;11.70;71.60;;;;;;4907420;29;20405;-76
2021/01/30 10:53:28;;;;;;;9.45;6.63;;;11.60;72.00;;;;;;4905746;29;20461;-75
2021/01/30 10:55:55;;;;;;;8.95;6.57;;;;;;;;;;4908551;29;20400;-75
2021/01/30 10:58:31;;;;;;;8.57;6.63;;;;;;;;;;4907534;29;20413;-76
2021/01/30 11:00:59;;;;;;;8.23;5.95;;;;;;;;;;4928196;29;20457;-75
2021/01/30 11:03:26;;;;;;;10.57;7.82;;;;;;;;;;4919396;29;20926;-77
2021/01/30 11:05:52;;;;;;;8.07;6.53;;;;;;;;;;4907237;29;20761;-76
2021/01/30 11:08:26;;;;;;;8.83;6.90;;;;;;;;;;4919286;29;20422;-76
2021/01/30 11:10:59;;;;;;;8.25;5.55;;;;;;;;;;4907901;29;20903;-77
2021/01/30 11:13:27;;;;;;;9.98;7.20;;;;;;;;;;4906894;29;20405;-76
2021/01/30 11:16:04;;;;;;;7.18;6.07;;;;;;;;;;4919533;29;20432;-76
2021/01/30 11:18:33;;;;;;;7.90;6.47;;;;;;;;;;4906887;29;20425;-76
2021/01/30 11:21:00;;;;;;;8.30;6.40;;;;;;;;;;4906049;29;20433;-76
2021/01/30 11:23:38;;;;;;;7.35;5.80;;;;;;;;;;4918955;29;20409;-76
2021/01/30 11:26:11;;;;;;;6.23;5.37;;;;;;;;;;4905755;29;21139;-76
2021/01/30 11:28:38;;;;;;;6.43;5.13;;;;;;;;;;4905587;29;20413;-77
2021/01/30 11:31:05;;;;;;;6.32;5.15;;;;;;;;;;4906144;29;20407;-75
2021/01/30 11:33:32;;;;;;;6.07;4.88;;;;;;;;;;4919385;29;20415;-75
2021/01/30 11:35:58;;;;;;;5.00;4.47;;;;;;;;;;4926350;29;20491;-75
2021/01/30 11:38:25;;;;;;;7.18;4.97;;;;;;;;;;4916907;29;20411;-75
2021/01/30 11:40:52;;;;;;;4.88;4.38;;;;;;;;;;4905558;29;20489;-76
2021/01/30 11:43:19;;;;;;;4.95;4.47;;;;;;;;;;4905879;29;20778;-75
2021/01/30 11:45:45;;;;;;;5.70;4.68;;;;;;;;;;4926821;29;21110;-75
2021/01/30 11:48:13;;;;;;;7.72;5.28;;;;;;;;;;4924705;29;20450;-75
2021/01/30 11:50:39;;;;;;;6.70;5.60;;;;;;;;;;4914321;29;20481;-76
2021/01/30 11:53:05;;;;;;;5.53;4.95;;;;;;;;;;4905473;29;20413;-76
2021/01/30 11:55:32;;;;;;;5.60;5.10;;;;;;;;;;4905216;29;20486;-76
2021/01/30 11:57:58;;;;;;;5.40;4.90;;;;;;;;;;4917665;29;20423;-77
2021/01/30 12:00:24;;;;;;;6.47;5.32;;;;;;;;;;4905039;29;20826;-76
2021/01/30 12:02:50;;;;;;;7.10;5.68;;;;;;;;;;4916534;29;20427;-77
2021/01/30 12:05:17;;;;;;;6.40;5.03;;;;;;;;;;4905464;29;20921;-76
2021/01/30 12:07:44;;;;;;;6.88;5.57;;;;;;;;;;4906708;29;20414;-76
2021/01/30 12:10:11;;;;;;;8.70;6.25;;;;;;;;;;4905246;29;20787;-76
2021/01/30 12:12:37;;;;;;;6.80;6.05;;;;;;;;;;4927198;29;20417;-76
2021/01/30 12:15:03;;;;;;;6.88;6.18;;;;;;;;;;4905090;29;20957;-76
2021/01/30 12:17:35;;;;;;;6.87;6.07;;;11.50;72.40;;;;;;4905919;29;20437;-75
2021/01/30 12:20:01;;;;;;;6.20;5.60;;;10.40;81.30;;;;;;4905944;29;20995;-76
2021/01/30 12:22:28;;;;;;;6.15;5.53;;;10.30;80.90;;;;;;4918140;29;20508;-77
2021/01/30 12:24:54;;;;;;;6.90;6.20;;;10.50;80.90;;;;;;4905078;29;20905;-76
2021/01/30 12:27:20;;;;;;;6.38;5.50;;;10.60;81.30;;;;;;4920943;29;20421;-76
2021/01/30 12:29:45;;;;;;;6.00;5.30;;;10.90;80.10;;;;;;4904578;29;20480;-76
2021/01/30 12:32:12;;;;;;;6.85;6.15;;;11.00;79.80;;;;;;4905530;29;20407;-77
2021/01/30 12:34:38;;;;;;;6.65;5.35;;;;;;;;;;4906856;29;20413;-76
2021/01/30 12:37:04;;;;;;;6.10;5.50;;;;;;;;;;4919479;29;20419;-76
2021/01/30 12:39:31;;;;;;;5.00;4.47;;;;;;;;;;4906664;29;20972;-76
2021/01/30 12:41:57;;;;;;;6.38;5.20;;;;;;;;;;4916374;29;20414;-75
2021/01/30 12:44:24;;;;;;;7.13;5.93;;;;;;;;;;4918619;29;20411;-74
2021/01/30 12:46:51;;;;;;;6.13;5.53;;;;;;;;;;4917564;29;20421;-75
2021/01/30 12:49:17;;;;;;;5.57;4.93;;;;;;;;;;4918735;29;20417;-75
2021/01/30 12:51:44;;;;;;;5.07;4.53;;;;;;;;;;4915149;29;20500;-74
2021/01/30 12:54:10;;;;;;;7.20;5.85;;;;;;;;;;4916530;29;20874;-75
2021/01/30 12:56:37;;;;;;;6.33;5.43;;;;;;;;;;4907247;29;20415;-74
2021/01/30 12:59:03;;;;;;;9.38;8.43;;;;;;;;;;4904956;29;20426;-74
2021/01/30 13:01:30;;;;;;;7.00;5.97;;;;;;;;;;4905583;29;20903;-75
2021/01/30 13:03:56;;;;;;;7.38;6.10;;;;;;;;;;4903943;29;20434;-76
2021/01/30 13:06:22;;;;;;;6.18;5.57;;;;;;;;;;4915482;29;20474;-75
2021/01/30 13:08:50;;;;;;;5.05;4.55;;;;;;;;;;4919542;29;20419;-75
2021/01/30 13:11:17;;;;;;;6.15;5.55;;;11.10;78.60;;;;;;4907839;29;20439;-75
2021/01/30 13:13:44;;;;;;;5.10;4.10;;;11.70;75.50;;;;;;4909656;29;20409;-75
2021/01/30 13:16:10;;;;;;;5.30;4.40;;;11.90;74.40;;;;;;4909074;29;20412;-75
2021/01/30 13:18:37;;;;;;;4.20;3.78;;;12.10;73.80;;;;;;4922648;29;20914;-75
2021/01/30 13:21:05;;;;;;;4.05;3.53;;;12.10;73.80;;;;;;4920275;29;20748;-75
2021/01/30 13:23:31;;;;;;;4.67;3.90;;;12.00;71.90;;;;;;4908897;29;20445;-75
2021/01/30 13:25:57;;;;;;;4.20;3.67;;;11.80;72.60;;;;;;4907066;29;20415;-75
2021/01/30 13:28:23;;;;;;;3.85;3.50;;;11.70;73.50;;;;;;4908560;29;20418;-76
2021/01/30 13:30:50;;;;;;;4.03;3.63;;;11.90;72.20;;;;;;4907549;29;20470;-76
2021/01/30 13:33:16;;;;;;;3.80;3.20;;;11.90;72.20;;;;;;4906178;29;20754;-75
2021/01/30 13:35:43;;;;;;;5.00;4.00;;;11.80;71.60;;;;;;4908672;29;20947;-74
2021/01/30 13:38:10;;;;;;;4.13;3.30;;;11.80;71.50;;;;;;4910017;29;20411;-76
2021/01/30 13:40:36;;;;;;;4.00;3.60;;;11.90;72.20;;;;;;4907914;29;20420;-75
2021/01/30 13:43:02;;;;;;;4.20;3.70;;;12.00;70.40;;;;;;4907563;29;20425;-76
2021/01/30 13:45:28;;;;;;;3.40;3.10;;;12.20;69.60;;;;;;4908771;29;20399;-75
2021/01/30 13:47:55;;;;;;;5.25;4.22;;;12.20;69.40;;;;;;4908294;29;20409;-74
2021/01/30 13:50:21;;;;;;;5.15;3.92;;;12.10;69.60;;;;;;4906999;29;20818;-75
2021/01/30 13:52:47;;;;;;;5.07;3.73;;;11.90;69.90;;;;;;4908254;29;20476;-76
2021/01/30 13:55:15;;;;;;;3.60;3.25;;;12.00;70.20;;;;;;4907167;29;20423;-76
2021/01/30 13:57:41;;;;;;;4.32;3.30;;;11.90;70.00;;;;;;4906146;29;20428;-78
2021/01/30 14:00:08;;;;;;;4.18;3.65;;;11.90;70.10;;;;;;4907751;29;20444;-77
2021/01/30 14:02:36;;;;;;;4.05;3.00;;;12.10;70.00;;;;;;4905557;29;20532;-75
2021/01/30 14:05:05;;;;;;;5.30;3.53;;;12.10;69.40;;;;;;4907116;29;20508;-75
2021/01/30 14:07:31;;;;;;;3.20;2.88;;;12.00;70.30;;;;;;4907406;29;20417;-77
2021/01/30 14:09:57;;;;;;;4.55;3.63;;;12.00;70.80;;;;;;4907300;29;21111;-75
2021/01/30 14:12:23;;;;;;;3.97;3.10;;;12.00;71.00;;;;;;4907594;29;20409;-75
2021/01/30 14:14:49;;;;;;;4.10;3.17;;;11.90;70.70;;;;;;4906562;29;20764;-76